Terminal Aerodrome Forecast
Issued by NWS

Home | Current Version | Previous Version | Graphics & Text | Print | Product List | Glossary On
Versions: 1 2 3 4 5 6 7 8 9 10 11 12 13 14 15 16 17 18 19
000
FTUS43 KGRB 132300
TAFCWA
TAF
KCWA 132333Z 1400/1424 01015KT 3SM RA BR OVC008
     FM140400 35015G21KT 6SM -RASN OVC004
     FM140700 34015G22KT 2SM -SN BR OVC005
     FM141200 33015G25KT 6SM -SN SCT007 OVC012
     FM141700 32015G25KT P6SM BKN030
     FM142300 32012KT P6SM SCT045
      AMD LTD TO CLD VIS AND WIND 1403/1411=

USA.gov is the U.S. government's official web portal to all federal, state and local government web resources and services.